Time;durP1;ratioP1;P1;durP2;ratioP2;P2;SDS_P1;SDS_P2;PMS_P1;PMS_P2;Temp;Humidity;BMP_temperature;BMP_pressure;BME280_temperature;BME280_humidity;BME280_pressure;Samples;Min_cycle;Max_cycle;Signal;HPM_P1;HPM_P2
2022/01/26 00:06:44;;;;;;;32.13;7.18;;;;;;;25.61;31.91;95361.06;4992830;28;20053;-41
2022/01/26 00:09:13;;;;;;;32.92;6.95;;;;;;;25.60;32.18;95353.34;4980222;28;20038;-41
2022/01/26 00:11:55;;;;;;;27.00;6.75;;;;;;;25.62;32.23;95354.66;4973786;28;20063;-42
2022/01/26 00:14:20;;;;;;;34.65;8.23;;;;;;;25.59;32.22;95355.22;4992156;28;20114;-43
2022/01/26 00:16:46;;;;;;;32.97;7.45;;;;;;;25.59;31.87;95347.22;4984085;28;20189;-43
2022/01/26 00:19:21;;;;;;;33.95;7.00;;;;;;;25.56;32.11;95347.75;4970304;28;20034;-41
2022/01/26 00:21:54;;;;;;;36.60;7.47;;;;;;;25.62;31.71;95343.22;4945852;28;20071;-41
2022/01/26 00:27:49;;;;;;;36.17;8.45;;;;;;;25.59;31.58;95338.41;4940179;29;20198;-41
2022/01/26 00:34:17;;;;;;;33.58;6.68;;;;;;;25.55;31.62;95333.66;4960652;28;20062;-41
2022/01/26 00:38:45;;;;;;;29.63;6.75;;;;;;;25.53;31.67;95333.13;4951522;28;20113;-41
2022/01/26 00:41:17;;;;;;;33.60;6.43;;;;;;;25.53;32.03;95333.13;4953228;28;20039;-41
2022/01/26 00:43:53;;;;;;;31.30;6.97;;;;;;;25.50;31.80;95330.19;4949297;28;20077;-43
2022/01/26 00:46:25;;;;;;;31.42;7.35;;;;;;;25.54;31.84;95325.94;4947024;28;20051;-41
2022/01/26 00:48:53;;;;;;;29.38;6.60;;;;;;;25.48;31.86;95325.13;4947503;28;20050;-41
2022/01/26 00:51:20;;;;;;;24.35;6.55;;;;;;;25.49;31.78;95329.41;4948157;29;20147;-41
2022/01/26 00:54:04;;;;;;;28.85;6.53;;;;;;;25.49;32.00;95328.59;4962457;28;20043;-43
2022/01/26 00:56:38;;;;;;;27.98;6.90;;;;;;;25.53;31.57;95332.31;4963728;28;20162;-42
2022/01/26 00:59:06;;;;;;;27.45;6.60;;;;;;;25.51;31.89;95337.91;4948549;28;20046;-43
2022/01/26 01:01:32;;;;;;;21.80;6.30;;;;;;;25.52;31.63;95338.72;4948430;28;20047;-42
2022/01/26 01:03:58;;;;;;;30.25;7.05;;;;;;;25.48;32.07;95341.13;4955937;28;20106;-40
2022/01/26 01:06:31;;;;;;;28.58;6.30;;;;;;;25.52;31.52;95336.06;4952197;28;20039;-41
2022/01/26 01:09:00;;;;;;;17.55;5.22;;;;;;;25.45;32.19;95335.53;4938107;29;20062;-41
2022/01/26 01:11:39;;;;;;;20.98;6.50;;;;;;;25.49;31.65;95339.25;4930943;29;20055;-42
2022/01/26 01:14:05;;;;;;;24.58;6.30;;;;;;;25.54;31.81;95340.03;4975857;28;20062;-41
2022/01/26 01:16:30;;;;;;;21.55;5.82;;;;;;;25.51;31.69;95339.75;4952067;28;20126;-41
2022/01/26 01:29:39;;;;;;;18.38;5.60;;;;;;;25.46;31.54;95332.59;4907156;29;20063;-43
2022/01/26 01:32:16;;;;;;;21.35;6.10;;;;;;;25.46;31.63;95334.47;4911191;29;20082;-42
2022/01/26 01:34:47;;;;;;;22.92;5.53;;;;;;;25.41;32.09;95332.59;4904417;29;20040;-41
2022/01/26 01:37:17;;;;;;;25.20;5.50;;;;;;;25.44;31.91;95339.28;4918309;29;20054;-41
2022/01/26 01:39:42;;;;;;;19.98;5.63;;;;;;;25.48;31.57;95332.34;4910174;29;20036;-41
2022/01/26 01:42:08;;;;;;;19.10;5.82;;;;;;;25.43;31.79;95329.66;4912668;29;20049;-42
2022/01/26 01:44:36;;;;;;;20.50;5.38;;;;;;;25.41;31.73;95331.81;4905811;29;20111;-41
2022/01/26 01:47:07;;;;;;;18.95;5.38;;;;;;;25.42;31.41;95336.88;4910982;29;20039;-42
2022/01/26 01:49:33;;;;;;;15.82;4.85;;;;;;;25.44;31.40;95336.59;4909891;29;20079;-43
2022/01/26 01:52:02;;;;;;;22.73;5.47;;;;;;;25.44;31.76;95328.63;4910411;29;20052;-40
2022/01/26 01:54:29;;;;;;;20.00;4.70;;;;;;;25.41;31.58;95335.25;4911028;29;20092;-40
2022/01/26 01:56:56;;;;;;;26.60;5.50;;;;;;;25.37;31.68;95334.19;4935682;29;20278;-43
2022/01/26 01:59:35;;;;;;;16.50;5.15;;;;;;;25.40;31.49;95332.84;4911700;29;20063;-41
2022/01/26 02:02:18;;;;;;;23.40;5.13;;;;;;;25.43;31.67;95333.13;4870233;29;20109;-40
2022/01/26 02:04:44;;;;;;;16.50;5.45;;;;;;;25.44;31.64;95325.94;4882291;29;20055;-41
2022/01/26 02:07:12;;;;;;;16.38;4.90;;;;;;;25.37;31.32;95331.53;4875700;29;20111;-41
2022/01/26 02:09:37;;;;;;;18.08;4.63;;;;;;;25.41;31.96;95335.25;4902952;29;20050;-43
2022/01/26 02:12:22;;;;;;;17.73;5.13;;;;;;;25.41;31.83;95331.81;4907934;29;20036;-42
2022/01/26 02:14:53;;;;;;;21.55;5.20;;;;;;;25.42;31.24;95325.41;4899529;29;20076;-40
2022/01/26 02:17:39;;;;;;;17.98;4.70;;;;;;;25.43;31.68;95329.66;4907346;29;20086;-41
2022/01/26 02:56:09;;;;;;;13.75;4.65;;;;;;;25.38;31.49;95292.38;4907099;29;19930;-43
2022/01/26 03:03:49;;;;;;;12.63;4.35;;;;;;;25.31;31.21;95295.34;4908834;29;20059;-40
2022/01/26 03:06:32;;;;;;;11.57;4.22;;;;;;;25.28;31.33;95296.66;4907051;29;20048;-42
2022/01/26 03:09:04;;;;;;;11.35;4.30;;;;;;;25.25;31.68;95291.09;4921597;29;20094;-40
2022/01/26 03:11:33;;;;;;;13.80;4.32;;;;;;;25.28;31.46;95293.22;4907732;29;20063;-40
2022/01/26 03:14:08;;;;;;;10.48;4.22;;;;;;;25.31;31.20;95290.81;4915891;29;20035;-40
2022/01/26 03:16:49;;;;;;;14.70;4.20;;;;;;;25.28;31.69;95293.22;4907871;29;20055;-41
2022/01/26 03:35:30;;;;;;;10.07;4.18;;;;;;;25.25;31.39;95291.09;4938471;29;20082;-41
2022/01/26 03:38:08;;;;;;;11.25;3.88;;;;;;;25.20;31.46;95289.19;4933897;29;20039;-42
2022/01/26 03:40:37;;;;;;;12.77;3.88;;;;;;;25.20;31.50;95294.53;4927989;29;20040;-42
2022/01/26 03:43:14;;;;;;;9.50;3.67;;;;;;;25.21;31.58;95295.31;4944866;28;20102;-41
2022/01/26 03:45:57;;;;;;;10.50;3.80;;;;;;;25.28;31.36;95295.88;4936575;29;20036;-41
2022/01/26 03:48:25;;;;;;;10.02;3.95;;;;;;;25.25;31.44;95301.75;4929139;29;20031;-41
2022/01/26 03:50:50;;;;;;;10.73;3.55;;;;;;;25.21;31.11;95301.47;4925967;29;20119;-42
2022/01/26 03:53:21;;;;;;;12.80;3.70;;;;;;;25.26;31.60;95301.47;4933594;29;20047;-41
2022/01/26 03:56:18;;;;;;;10.70;4.07;;;;;;;25.24;31.25;95300.94;4920117;29;20048;-41
2022/01/26 03:58:49;;;;;;;8.70;3.58;;;;;;;25.25;31.14;95297.22;4910496;29;20123;-42
2022/01/26 04:02:07;;;;;;;10.05;3.78;;;;;;;25.29;31.35;95300.94;4915769;29;20044;-43
2022/01/26 04:04:39;;;;;;;9.50;3.80;;;;;;;25.22;31.65;95302.25;4916835;29;20155;-40
2022/01/26 04:07:05;;;;;;;8.85;3.30;;;;;;;25.22;31.35;95295.06;4914613;29;20055;-41
2022/01/26 04:09:42;;;;;;;10.30;4.30;;;;;;;25.18;31.64;95291.34;4911047;29;20043;-42
2022/01/26 04:12:08;;;;;;;11.82;3.90;;;;;;;25.23;31.19;95298.56;4896469;29;20052;-43
2022/01/26 04:14:35;;;;;;;12.48;3.78;;;;;;;25.23;31.46;95294.03;4923558;29;20088;-42
2022/01/26 04:17:00;;;;;;;10.45;3.60;;;;;;;25.20;31.67;95305.16;4906461;29;20049;-42
2022/01/26 04:19:29;;;;;;;14.05;3.60;;;;;;;25.20;31.14;95305.16;4907798;29;20152;-40
2022/01/26 04:22:14;;;;;;;8.48;3.97;;;;;;;25.20;31.70;95299.84;4924552;29;20052;-42
2022/01/26 04:24:46;;;;;;;11.05;3.75;;;;;;;25.22;31.16;95305.69;4925824;29;20070;-42
2022/01/26 04:27:20;;;;;;;10.52;3.53;;;;;;;25.20;31.54;95309.69;4925623;29;20076;-42
2022/01/26 04:29:47;;;;;;;8.55;3.60;;;;;;;25.17;31.58;95300.41;4933251;29;20043;-42
2022/01/26 04:32:14;;;;;;;8.20;3.50;;;;;;;25.16;31.57;95307.56;4961270;28;20044;-42
2022/01/26 04:34:42;;;;;;;7.18;3.63;;;;;;;25.14;31.68;95307.03;4962579;28;20060;-43
2022/01/26 04:40:20;;;;;;;8.07;3.35;;;;;;;25.18;31.38;95299.31;4908457;29;20084;-41
2022/01/26 04:43:03;;;;;;;6.80;3.38;;;;;;;25.14;31.31;95293.72;4912470;29;20080;-40
2022/01/26 04:45:31;;;;;;;9.23;3.42;;;;;;;25.18;31.15;95296.66;4914131;29;20056;-42
2022/01/26 04:47:57;;;;;;;6.45;3.35;;;;;;;25.18;31.17;95291.34;4924802;29;20054;-41
2022/01/26 04:50:23;;;;;;;8.68;3.28;;;;;;;25.14;31.56;95287.63;4917559;29;20048;-42
2022/01/26 04:52:59;;;;;;;7.25;3.50;;;;;;;25.16;31.32;95290.81;4911124;29;20048;-43
2022/01/26 04:55:24;;;;;;;9.10;3.50;;;;;;;25.16;31.43;95288.94;4903511;29;20051;-42
2022/01/26 04:57:57;;;;;;;9.45;3.92;;;;;;;25.16;31.38;95288.16;4893285;29;20141;-44
2022/01/26 05:00:25;;;;;;;5.95;3.50;;;;;;;25.18;31.27;95292.13;4919396;29;20048;-43
2022/01/26 05:02:53;;;;;;;8.48;3.13;;;;;;;25.14;31.15;95285.75;4893048;29;20079;-42
2022/01/26 05:05:19;;;;;;;8.80;3.28;;;;;;;25.15;31.17;95286.53;4904873;29;20049;-42
2022/01/26 05:07:44;;;;;;;7.03;3.20;;;;;;;25.13;31.39;95289.50;4908760;29;20082;-42
2022/01/26 05:10:09;;;;;;;7.10;3.05;;;;;;;25.13;31.40;95284.16;4898592;29;20071;-42
2022/01/26 05:12:38;;;;;;;6.15;3.10;;;;;;;25.16;31.60;95277.50;4916614;29;20044;-40
2022/01/26 05:15:13;;;;;;;6.90;3.20;;;;;;;25.15;31.02;95287.34;4910974;29;20040;-41
2022/01/26 05:17:43;;;;;;;8.43;3.30;;;;;;;25.13;31.10;95283.34;4927420;29;20048;-41
2022/01/26 05:20:11;;;;;;;;;;;;;;;25.64;30.25;95287.81;4932689;28;20046;-42
2022/01/26 05:22:38;;;;;;;9.07;3.25;;;;;;;25.27;30.93;95284.44;4967233;28;19923;-43
2022/01/26 05:25:15;;;;;;;6.47;3.03;;;;;;;25.20;30.90;95278.56;4940930;28;20122;-40
2022/01/26 05:27:46;;;;;;;7.80;3.38;;;;;;;25.15;31.22;95286.53;4949272;28;20059;-41
2022/01/26 05:30:12;;;;;;;7.80;3.15;;;;;;;25.16;30.79;95291.59;4928666;29;20034;-44
2022/01/26 05:32:40;;;;;;;8.63;3.20;;;;;;;25.13;31.26;95294.81;4938092;29;20039;-45
2022/01/26 05:35:05;;;;;;;8.65;2.80;;;;;;;25.14;31.06;95299.06;4945383;28;20102;-42
2022/01/26 05:37:31;;;;;;;6.70;2.80;;;;;;;25.15;30.83;95299.84;4951362;28;20035;-42
2022/01/26 05:39:56;;;;;;;5.60;3.10;;;;;;;25.13;30.65;95300.13;4950621;28;20042;-41
2022/01/26 05:42:25;;;;;;;5.45;3.00;;;;;;;25.16;30.77;95288.94;4953055;28;20035;-42
2022/01/26 05:45:05;;;;;;;9.02;2.85;;;;;;;25.14;31.07;95291.06;4946821;28;20046;-41
2022/01/26 05:47:32;;;;;;;5.18;2.90;;;;;;;25.14;31.02;95295.59;4952413;28;20046;-41
2022/01/26 05:49:58;;;;;;;6.35;3.42;;;;;;;25.14;31.05;95292.94;4948772;28;20032;-42
2022/01/26 05:52:26;;;;;;;7.78;3.03;;;;;;;25.17;30.93;95297.75;4944407;28;20055;-40
2022/01/26 05:55:01;;;;;;;7.85;2.65;;;;;;;25.19;30.56;95303.59;4936199;28;20034;-42
2022/01/26 05:57:26;;;;;;;6.35;2.90;;;;;;;25.20;30.83;95299.06;4952067;28;20101;-41
2022/01/26 05:59:57;;;;;;;8.68;3.20;;;;;;;25.16;30.17;95296.13;4966729;28;20047;-41
2022/01/26 06:02:23;;;;;;;7.25;3.00;;;;;;;25.20;30.00;95296.41;4963938;28;20202;-45
2022/01/26 06:04:48;;;;;;;5.15;2.90;;;;;;;25.19;30.12;95303.59;4961248;28;20055;-42
2022/01/26 06:07:14;;;;;;;6.72;2.97;;;;;;;25.15;30.24;95300.66;4956199;28;20031;-42
2022/01/26 06:09:39;;;;;;;5.78;2.95;;;;;;;25.20;29.75;95301.72;4937852;29;20027;-42
2022/01/26 06:12:05;;;;;;;7.28;2.88;;;;;;;25.22;30.21;95302.25;4939698;29;20039;-41
2022/01/26 06:14:32;;;;;;;8.93;2.95;;;;;;;25.24;30.02;95303.59;4932607;29;20035;-42
2022/01/26 06:16:57;;;;;;;7.85;2.83;;;;;;;25.24;29.81;95302.81;4970799;28;20274;-41
2022/01/26 06:19:28;;;;;;;7.97;2.78;;;;;;;25.23;29.85;95304.69;4959567;28;20086;-41
2022/01/26 06:21:53;;;;;;;8.48;2.70;;;;;;;25.21;29.91;95300.63;4938201;29;20118;-42
2022/01/26 06:24:19;;;;;;;12.18;2.92;;;;;;;25.18;29.60;95302.78;4933422;29;20098;-41
2022/01/26 06:26:46;;;;;;;9.93;3.05;;;;;;;25.16;29.93;95306.78;4968404;28;20039;-41
2022/01/26 06:29:12;;;;;;;16.67;3.42;;;;;;;25.18;30.09;95308.09;4927592;29;20043;-40
2022/01/26 06:31:41;;;;;;;16.80;3.45;;;;;;;25.14;29.98;95304.38;4928514;29;20063;-43
2022/01/26 06:34:09;;;;;;;9.98;3.13;;;;;;;25.14;30.00;95304.38;4926716;29;20052;-41
2022/01/26 06:36:43;;;;;;;14.93;3.63;;;;;;;25.13;30.10;95310.78;4958468;28;20043;-41
2022/01/26 06:39:12;;;;;;;10.20;2.88;;;;;;;25.15;29.94;95315.81;4930051;29;20040;-40
2022/01/26 06:41:39;;;;;;;12.07;3.33;;;;;;;25.20;29.56;95315.81;4948962;28;20039;-40
2022/01/26 06:44:18;;;;;;;9.18;3.13;;;;;;;25.21;29.74;95322.75;4944092;28;20288;-42
2022/01/26 06:47:18;;;;;;;10.82;3.00;;;;;;;25.22;29.95;95318.22;4936199;29;20027;-42
2022/01/26 06:49:44;;;;;;;;;;;;;;;25.70;28.70;95319.50;4930518;29;20095;-41
2022/01/26 06:52:09;;;;;;;12.27;3.40;;;;;;;25.34;28.77;95321.41;4931983;29;19930;-42
2022/01/26 06:54:37;;;;;;;9.73;3.10;;;;;;;25.25;29.29;95310.53;4936481;28;20043;-42
2022/01/26 06:57:03;;;;;;;9.23;3.10;;;;;;;25.22;29.25;95313.69;4934666;29;20058;-42
2022/01/26 06:59:28;;;;;;;13.13;3.22;;;;;;;25.25;28.82;95313.19;4964425;28;20187;-41
2022/01/26 07:01:59;;;;;;;10.25;2.83;;;;;;;25.20;28.80;95320.34;4962927;28;20050;-41
2022/01/26 07:04:24;;;;;;;8.45;3.25;;;;;;;25.15;29.16;95323.78;4947699;28;20039;-40
2022/01/26 07:06:50;;;;;;;9.73;3.10;;;;;;;25.15;29.36;95326.47;4928915;29;20180;-41
2022/01/26 07:09:16;;;;;;;14.50;3.13;;;;;;;25.18;29.08;95321.41;4960096;28;20038;-41
2022/01/26 07:11:52;;;;;;;11.20;3.17;;;;;;;25.15;29.11;95329.13;4931188;29;20110;-43
2022/01/26 07:19:46;;;;;;;11.75;3.20;;;;;;;25.14;29.55;95325.66;4926458;29;20042;-40
2022/01/26 07:20:29;;;;;;;11.93;2.88;;;;;;;25.14;29.20;95346.16;4934806;29;20046;-42
2022/01/26 07:22:47;;;;;;;10.93;2.50;;;;;;;25.15;29.32;95350.41;4923895;29;20101;-41
2022/01/26 07:25:15;;;;;;;8.27;3.03;;;;;;;25.09;29.79;95346.97;4932092;29;20036;-42
2022/01/26 07:27:42;;;;;;;11.27;3.30;;;;;;;25.10;29.48;95359.22;4926366;29;20092;-42
2022/01/26 07:30:08;;;;;;;10.50;2.90;;;;;;;25.12;29.25;95359.75;4930221;29;20043;-40
2022/01/26 07:32:37;;;;;;;15.77;3.92;;;;;;;25.07;29.77;95358.94;4959217;28;20075;-41
2022/01/26 07:35:06;;;;;;;13.27;3.63;;;;;;;25.06;29.61;95360.00;4933899;29;20040;-42
2022/01/26 07:37:43;;;;;;;21.70;3.78;;;;;;;25.10;28.91;95355.75;4954698;28;20027;-41
2022/01/26 07:40:13;;;;;;;10.25;4.15;;;;;;;25.08;28.31;95355.22;4936496;29;20066;-42
2022/01/26 07:42:38;;;;;;;7.43;3.97;;;;;;;25.11;27.87;95354.69;4943276;29;20031;-41
2022/01/26 07:45:05;;;;;;;8.15;4.40;;;;;;;25.02;27.88;95354.44;4967964;28;20054;-44
2022/01/26 07:47:34;;;;;;;10.55;3.83;;;;;;;24.99;28.25;95357.59;4940047;29;20027;-41
2022/01/26 07:50:00;;;;;;;11.88;3.42;;;;;;;24.94;28.37;95358.41;4958022;28;20035;-42
2022/01/26 07:52:38;;;;;;;9.45;3.30;;;;;;;24.94;28.43;95360.25;4963148;28;20066;-42
2022/01/26 07:55:05;;;;;;;9.35;3.30;;;;;;;24.95;28.49;95362.66;4939730;29;20035;-41
2022/01/26 07:57:32;;;;;;;9.57;3.40;;;;;;;24.95;28.50;95360.00;4964173;28;20098;-41
2022/01/26 08:00:00;;;;;;;7.88;3.10;;;;;;;24.97;28.74;95355.19;4949706;28;20042;-40
2022/01/26 08:02:26;;;;;;;8.52;3.33;;;;;;;24.95;28.96;95357.34;4935935;29;20039;-41
2022/01/26 08:04:53;;;;;;;10.88;3.72;;;;;;;24.97;28.65;95357.88;4935065;29;20039;-41
2022/01/26 08:07:30;;;;;;;8.00;3.35;;;;;;;25.01;28.55;95365.31;4931895;29;20035;-42
2022/01/26 08:09:58;;;;;;;9.23;3.20;;;;;;;24.97;28.58;95365.84;4948689;28;20032;-42
2022/01/26 08:12:25;;;;;;;10.93;3.80;;;;;;;24.98;28.84;95370.13;4931903;29;20043;-42
2022/01/26 08:14:55;;;;;;;8.95;3.33;;;;;;;24.94;29.11;95371.72;4941600;29;20035;-43
2022/01/26 08:17:23;;;;;;;11.55;3.50;;;;;;;25.02;28.85;95377.56;4931099;29;20043;-41
2022/01/26 08:19:55;;;;;;;9.73;3.08;;;;;;;24.92;29.42;95381.00;4947406;28;20044;-42
2022/01/26 08:22:27;;;;;;;9.20;3.28;;;;;;;24.92;29.25;95381.81;4935301;29;20036;-41
2022/01/26 08:24:53;;;;;;;9.73;3.33;;;;;;;24.93;29.19;95370.09;4930949;29;20039;-41
2022/01/26 08:27:20;;;;;;;9.93;3.20;;;;;;;24.96;29.15;95371.44;4928669;29;20035;-42
2022/01/26 08:29:52;;;;;;;8.35;3.40;;;;;;;24.92;29.38;95368.53;4929159;29;20042;-41
2022/01/26 08:32:17;;;;;;;14.00;3.67;;;;;;;24.99;29.56;95378.88;4932076;29;20091;-41
2022/01/26 08:34:43;;;;;;;13.00;3.20;;;;;;;24.99;29.40;95376.22;4933348;29;20036;-41
2022/01/26 08:37:11;;;;;;;14.85;3.47;;;;;;;25.00;29.33;95380.50;4947486;28;20141;-42
2022/01/26 08:39:41;;;;;;;9.85;2.80;;;;;;;24.95;29.79;95385.81;4932597;29;20043;-41
2022/01/26 08:42:07;;;;;;;;;;;;;;;25.47;28.74;95383.97;4934842;29;20062;-41
2022/01/26 08:44:33;;;;;;;10.95;3.13;;;;;;;25.12;28.99;95390.88;4931739;29;19914;-40
2022/01/26 08:47:00;;;;;;;10.85;3.40;;;;;;;25.00;29.25;95382.34;4962112;28;20043;-41
2022/01/26 08:49:27;;;;;;;6.07;2.50;;;;;;;24.98;29.02;95385.28;4946981;28;20044;-41
2022/01/26 08:51:57;;;;;;;8.40;2.78;;;;;;;24.91;29.24;95382.09;4936498;29;20039;-41
2022/01/26 08:54:22;;;;;;;10.52;3.38;;;;;;;24.98;28.86;95382.63;4959795;28;20027;-41
2022/01/26 08:56:56;;;;;;;10.30;3.13;;;;;;;24.95;29.01;95381.28;4961146;28;20047;-42
2022/01/26 08:59:23;;;;;;;9.05;2.85;;;;;;;24.94;29.04;95379.69;4930867;29;20054;-43
2022/01/26 09:01:51;;;;;;;9.70;2.83;;;;;;;24.94;29.41;95382.34;4933356;29;20035;-44
2022/01/26 09:04:16;;;;;;;7.90;2.70;;;;;;;24.94;29.21;95377.03;4930165;29;20043;-43
2022/01/26 09:07:00;;;;;;;7.55;2.90;;;;;;;24.96;29.71;95379.44;4929587;29;20062;-42
2022/01/26 09:09:27;;;;;;;10.00;3.35;;;;;;;24.98;29.32;95387.94;4943960;28;20043;-41
2022/01/26 09:12:07;;;;;;;9.98;3.10;;;;;;;24.98;29.27;95383.41;4948992;28;20119;-41
2022/01/26 09:14:32;;;;;;;11.57;3.40;;;;;;;25.03;29.40;95385.28;4929926;29;20050;-41
2022/01/26 09:16:58;;;;;;;9.10;2.70;;;;;;;24.98;29.60;95383.41;4931448;29;20035;-42
2022/01/26 09:19:31;;;;;;;6.63;2.90;;;;;;;25.01;29.72;95389.28;4928617;29;20051;-42
2022/01/26 09:22:02;;;;;;;8.20;2.75;;;;;;;24.92;30.03;95383.66;4931195;29;20058;-41
2022/01/26 09:24:39;;;;;;;10.25;2.88;;;;;;;24.98;30.01;95386.09;4944359;28;20048;-41
2022/01/26 09:27:06;;;;;;;9.13;2.70;;;;;;;25.00;29.97;95390.31;4949292;28;20055;-43
2022/01/26 09:29:34;;;;;;;12.60;3.42;;;;;;;25.02;29.83;95398.84;4961594;28;20107;-41
2022/01/26 09:31:59;;;;;;;6.50;2.72;;;;;;;25.03;29.72;95405.78;4964985;28;20039;-41
2022/01/26 09:34:28;;;;;;;6.72;2.70;;;;;;;25.01;30.06;95407.91;4936958;29;20043;-41
2022/01/26 09:36:53;;;;;;;11.10;2.90;;;;;;;25.02;29.91;95404.16;4967935;28;20039;-41
2022/01/26 09:39:20;;;;;;;10.43;2.97;;;;;;;25.04;29.86;95396.75;4937993;29;20039;-41
2022/01/26 09:41:51;;;;;;;8.40;2.67;;;;;;;25.01;30.04;95397.25;4945527;28;20079;-42
2022/01/26 09:44:17;;;;;;;7.05;3.15;;;;;;;25.06;29.87;95395.41;4939054;29;20057;-41
2022/01/26 09:46:43;;;;;;;7.88;2.72;;;;;;;25.07;30.10;95399.66;4954613;28;20134;-42
2022/01/26 09:49:15;;;;;;;7.78;2.80;;;;;;;25.10;29.84;95406.31;4933578;29;20085;-41
2022/01/26 09:51:43;;;;;;;8.55;2.90;;;;;;;25.05;30.37;95406.31;4962804;28;20145;-42
2022/01/26 09:54:13;;;;;;;9.40;2.70;;;;;;;25.07;29.97;95404.19;4951805;28;20051;-42
2022/01/26 09:56:50;;;;;;;8.13;2.85;;;;;;;25.14;30.25;95402.06;4943246;29;20043;-41
2022/01/26 09:59:16;;;;;;;8.90;2.90;;;;;;;25.12;30.34;95401.53;4949369;28;20036;-42
2022/01/26 10:01:43;;;;;;;7.28;2.80;;;;;;;25.12;30.15;95397.00;4938508;29;20046;-45
2022/01/26 10:04:29;;;;;;;9.68;3.15;;;;;;;25.14;30.26;95402.84;4974475;28;20186;-41
2022/01/26 10:07:44;;;;;;;8.50;2.42;;;;;;;25.15;30.00;95403.66;4934806;29;20078;-42
2022/01/26 10:18:13;;;;;;;6.80;2.63;;;;;;;25.16;30.46;95398.06;4929091;29;20046;-40
2022/01/26 10:20:38;;;;;;;7.22;2.60;;;;;;;25.14;30.29;95396.75;4927307;29;20032;-41
2022/01/26 10:23:19;;;;;;;6.45;2.75;;;;;;;25.19;30.52;95396.75;4959438;28;20090;-43
2022/01/26 10:26:06;;;;;;;7.32;2.70;;;;;;;25.16;30.92;95379.44;4936410;29;20036;-41
2022/01/26 10:28:59;;;;;;;9.75;3.13;;;;;;;25.22;30.49;95374.91;4950651;28;20047;-42
2022/01/26 10:31:30;;;;;;;3.25;2.30;;;;;;;25.16;30.50;95374.09;4953516;28;20129;-41
2022/01/26 10:34:02;;;;;;;5.88;2.50;;;;;;;25.15;30.71;95379.69;4941748;28;20047;-40
2022/01/26 10:37:00;;;;;;;6.15;2.83;;;;;;;25.31;30.53;95385.88;4969416;28;20039;-40
2022/01/26 10:39:47;;;;;;;6.07;2.58;;;;;;;25.18;30.84;95374.63;4942778;28;20110;-41
2022/01/26 10:42:17;;;;;;;6.50;2.42;;;;;;;25.20;30.50;95385.03;4918134;28;20039;-41
2022/01/26 10:47:51;;;;;;;8.00;3.10;;;;;;;25.27;29.84;95390.91;4877620;29;20128;-41
2022/01/26 10:53:15;;;;;;;6.10;2.80;;;;;;;25.18;30.70;95371.97;4856375;29;20075;-41
2022/01/26 10:55:41;;;;;;;6.47;2.70;;;;;;;25.20;30.87;95368.25;4865106;29;20057;-41
2022/01/26 10:58:07;;;;;;;7.07;2.97;;;;;;;25.24;30.66;95372.81;4851911;29;20037;-40
2022/01/26 11:00:41;;;;;;;6.85;2.83;;;;;;;25.22;31.21;95369.59;4836416;29;20045;-40
2022/01/26 11:03:07;;;;;;;7.28;3.17;;;;;;;25.22;31.37;95364.25;4861657;29;20051;-41
2022/01/26 11:05:33;;;;;;;5.10;3.00;;;;;;;25.23;31.56;95376.53;4837090;29;20103;-41
2022/01/26 11:08:00;;;;;;;7.55;3.38;;;;;;;25.22;31.41;95390.09;4839195;29;20046;-41
2022/01/26 11:10:38;;;;;;;5.95;3.38;;;;;;;25.24;31.66;95399.44;4844046;29;20145;-41
2022/01/26 11:13:04;;;;;;;8.75;3.05;;;;;;;25.27;31.97;95408.75;4819367;29;20075;-41
2022/01/26 11:15:30;;;;;;;7.28;3.22;;;;;;;25.26;32.21;95399.94;4835019;29;20081;-41
2022/01/26 11:18:23;;;;;;;4.97;3.03;;;;;;;25.30;32.59;95397.56;4857498;28;20043;-41
2022/01/26 11:20:52;;;;;;;9.52;3.10;;;;;;;25.26;32.32;95381.31;4930560;29;20038;-41
2022/01/26 11:23:19;;;;;;;10.05;3.25;;;;;;;25.31;32.26;95377.88;4958343;28;20039;-42
2022/01/26 11:25:47;;;;;;;8.35;3.15;;;;;;;25.32;32.58;95364.31;4944717;28;20067;-41
2022/01/26 11:28:15;;;;;;;6.97;3.40;;;;;;;25.28;32.63;95362.44;4927765;29;20067;-41
2022/01/26 11:30:41;;;;;;;9.70;2.95;;;;;;;25.30;32.83;95355.78;4933296;29;20070;-41
2022/01/26 11:33:19;;;;;;;6.40;3.45;;;;;;;25.33;33.12;95351.78;4928024;29;20040;-43
2022/01/26 11:35:48;;;;;;;7.93;3.42;;;;;;;25.35;32.62;95339.00;4935518;29;20043;-42
2022/01/26 11:46:32;;;;;;;8.90;2.85;;;;;;;25.45;32.85;95309.69;4942760;28;20075;-43
2022/01/26 11:49:01;;;;;;;7.38;3.13;;;;;;;25.41;32.88;95297.97;4959583;28;20039;-42
2022/01/26 11:51:57;;;;;;;6.47;3.08;;;;;;;25.58;33.08;95299.56;4945031;28;20046;-42
2022/01/26 11:54:28;;;;;;;7.88;3.50;;;;;;;25.45;33.05;95306.22;4946407;28;20076;-44
2022/01/26 11:57:04;;;;;;;9.88;3.20;;;;;;;25.45;33.07;95308.91;5040489;23;20063;-81
2022/01/26 11:59:52;;;;;;;7.82;3.00;;;;;;;25.45;33.22;95301.69;4942707;29;20099;-81
2022/01/26 12:02:23;;;;;;;10.57;3.10;;;;;;;25.48;33.04;95298.50;4930121;29;20118;-82
2022/01/26 12:05:05;;;;;;;7.80;2.83;;;;;;;25.46;33.07;95292.66;4945575;29;20046;-78
2022/01/26 12:07:31;;;;;;;6.93;2.80;;;;;;;25.49;33.03;95296.63;4915580;29;20074;-79
2022/01/26 12:10:05;;;;;;;7.72;3.00;;;;;;;25.46;32.80;95286.53;4916636;29;20031;-79
2022/01/26 12:12:35;;;;;;;8.05;3.20;;;;;;;25.48;32.66;95285.19;4927120;29;20039;-78
2022/01/26 12:15:16;;;;;;;8.55;3.10;;;;;;;25.50;32.64;95290.25;4930217;29;20027;-80
2022/01/26 12:18:06;;;;;;;7.72;3.30;;;;;;;25.48;32.82;95279.06;4930784;29;20114;-78
2022/01/26 12:37:17;;;;;;;6.53;2.78;;;;;;;25.54;32.37;95278.78;4950470;28;20031;-80
2022/01/26 12:43:01;;;;;;;9.90;3.45;;;;;;;25.55;32.59;95292.88;4946754;28;20174;-81
2022/01/26 12:45:27;;;;;;;9.45;3.10;;;;;;;25.57;32.77;95306.75;4954111;28;20095;-81
2022/01/26 12:47:54;;;;;;;5.55;2.83;;;;;;;25.54;32.70;95316.06;4934442;28;20039;-80
2022/01/26 12:50:20;;;;;;;7.50;3.28;;;;;;;25.55;32.75;95327.50;4939064;28;20042;-80
2022/01/26 12:53:06;;;;;;;8.70;3.45;;;;;;;25.61;32.52;95318.47;4954011;28;20038;-81
2022/01/26 12:55:34;;;;;;;8.07;3.28;;;;;;;25.53;32.86;95313.66;4949873;28;20118;-82
2022/01/26 12:58:00;;;;;;;7.15;3.58;;;;;;;25.54;32.74;95312.59;4951990;28;20042;-83
2022/01/26 13:00:28;;;;;;;6.32;2.88;;;;;;;25.51;33.09;95313.97;4938362;29;20024;-81
2022/01/26 13:02:54;;;;;;;7.93;3.03;;;;;;;25.50;33.28;95308.91;4935949;29;20040;-81
2022/01/26 13:05:26;;;;;;;8.57;3.22;;;;;;;25.50;32.94;95308.91;4919675;29;20109;-81
2022/01/26 13:08:03;;;;;;;12.75;3.55;;;;;;;25.52;32.93;95304.09;4933502;29;20031;-82
2022/01/26 13:10:30;;;;;;;10.43;3.20;;;;;;;25.56;32.99;95289.94;4929745;29;20046;-81
2022/01/26 13:13:07;;;;;;;8.65;3.58;;;;;;;25.57;32.97;95285.44;4915923;29;20035;-82
2022/01/26 13:15:41;;;;;;;8.55;3.45;;;;;;;25.61;32.92;95288.34;4901920;29;20032;-81
2022/01/26 13:26:52;;;;;;;6.35;3.30;;;;;;;25.78;32.62;95298.69;4913363;29;20053;-81
2022/01/26 13:29:28;;;;;;;5.88;3.05;;;;;;;25.78;32.97;95293.34;4918227;29;20035;-82
2022/01/26 13:37:28;;;;;;;12.93;9.65;;;;;;;25.78;31.23;95280.84;4912093;29;20103;-81
2022/01/26 13:45:54;;;;;;;15.27;11.27;;;;;;;25.81;29.29;95284.81;4917500;29;20043;-81
2022/01/26 13:48:21;;;;;;;12.80;10.38;;;;;;;25.88;29.53;95282.69;4930460;29;20099;-81
2022/01/26 13:51:09;;;;;;;17.15;9.93;;;;;;;25.88;29.87;95278.13;4919110;29;20031;-81
2022/01/26 13:53:48;;;;;;;11.30;9.05;;;;;;;25.98;29.51;95287.19;4931859;29;20265;-81
2022/01/26 13:56:20;;;;;;;14.93;8.77;;;;;;;26.05;29.77;95288.50;4915875;29;20068;-82
2022/01/26 13:59:12;;;;;;;11.23;8.57;;;;;;;26.03;30.17;95284.50;4896517;29;20353;-83
2022/01/26 14:01:44;;;;;;;12.15;7.82;;;;;;;26.08;30.34;95289.81;4933635;29;20046;-82
2022/01/26 14:04:10;;;;;;;18.55;7.55;;;;;;;26.05;30.22;95293.81;4933020;28;20048;-81
2022/01/26 14:06:35;;;;;;;18.15;7.32;;;;;;;26.08;30.34;95292.47;4900749;29;20039;-81
2022/01/26 14:09:01;;;;;;;14.23;7.53;;;;;;;26.14;30.51;95294.84;4916087;29;20023;-81
2022/01/26 14:11:39;;;;;;;11.82;6.53;;;;;;;26.15;30.81;95295.63;4899767;29;20027;-81
2022/01/26 14:14:04;;;;;;;15.73;7.13;;;;;;;26.19;30.81;95296.69;4929088;29;20031;-81
2022/01/26 14:16:37;;;;;;;16.42;6.95;;;;;;;26.18;31.03;95297.75;4909210;29;20035;-81
2022/01/26 14:19:27;;;;;;;27.15;7.05;;;;;;;26.25;30.99;95300.13;4902365;29;20066;-81